< < Back
Terminal Aerodrome Forecast


Current Version              Previous Versions:   1  2  3  4  5  6  7  8  9  

Terminal Aerodrome Forecast

015
FTUS42 KCHS 170900 AAA
TAFCHS
TAF AMD
KCHS 170908Z 1709/1806 VRB02KT 6SM BR SCT006 SCT015
      TEMPO 1710/1713 4SM BR BKN003
     FM171330 VRB06KT P6SM SCT015 BKN035
     FM171700 11006KT P6SM VCSH SCT025 BKN200=

Latest METAR

293
SAUS80 KWBC 171500 CCA
MTRCHS
METAR KCHS 171456Z 01005KT 10SM FEW025 SCT250 29/22 A2993 RMK AO2 SLP134
60001 T02890217 53002


USA.gov is the U.S. government's official web portal to all federal, state and local government web resources and services.